sensor_id;sensor_type;location;lat;lon;timestamp;P1;durP1;ratioP1;P2;durP2;ratioP2
9270;SDS011;4673;53.458;9.940;2023-07-20T00:01:58;2.38;;;2.38;;
9270;SDS011;4673;53.458;9.940;2023-07-20T00:04:24;1.98;;;1.98;;
9270;SDS011;4673;53.458;9.940;2023-07-20T00:06:50;2.22;;;2.22;;
9270;SDS011;4673;53.458;9.940;2023-07-20T00:09:15;2.60;;;2.60;;
9270;SDS011;4673;53.458;9.940;2023-07-20T00:11:44;2.30;;;2.30;;
9270;SDS011;4673;53.458;9.940;2023-07-20T00:14:16;2.33;;;2.33;;
9270;SDS011;4673;53.458;9.940;2023-07-20T00:16:42;2.25;;;2.25;;
9270;SDS011;4673;53.458;9.940;2023-07-20T00:19:07;2.23;;;2.23;;
9270;SDS011;4673;53.458;9.940;2023-07-20T00:21:35;2.08;;;2.08;;
9270;SDS011;4673;53.458;9.940;2023-07-20T00:24:01;2.03;;;2.03;;
9270;SDS011;4673;53.458;9.940;2023-07-20T00:26:27;2.05;;;2.05;;
9270;SDS011;4673;53.458;9.940;2023-07-20T00:28:53;2.50;;;2.50;;
9270;SDS011;4673;53.458;9.940;2023-07-20T00:31:18;2.55;;;2.55;;
9270;SDS011;4673;53.458;9.940;2023-07-20T00:33:44;2.75;;;2.75;;
9270;SDS011;4673;53.458;9.940;2023-07-20T00:36:10;2.63;;;2.63;;
9270;SDS011;4673;53.458;9.940;2023-07-20T00:38:35;2.25;;;2.25;;
9270;SDS011;4673;53.458;9.940;2023-07-20T00:41:01;2.78;;;2.78;;
9270;SDS011;4673;53.458;9.940;2023-07-20T00:43:26;3.40;;;3.40;;
9270;SDS011;4673;53.458;9.940;2023-07-20T00:45:52;3.05;;;3.05;;
9270;SDS011;4673;53.458;9.940;2023-07-20T00:48:18;3.20;;;3.20;;
9270;SDS011;4673;53.458;9.940;2023-07-20T00:50:44;3.08;;;3.08;;
9270;SDS011;4673;53.458;9.940;2023-07-20T00:53:11;3.58;;;3.58;;
9270;SDS011;4673;53.458;9.940;2023-07-20T00:55:37;3.15;;;3.15;;
9270;SDS011;4673;53.458;9.940;2023-07-20T00:58:03;2.93;;;2.93;;
9270;SDS011;4673;53.458;9.940;2023-07-20T01:00:29;3.13;;;3.13;;
9270;SDS011;4673;53.458;9.940;2023-07-20T01:02:55;3.13;;;3.13;;
9270;SDS011;4673;53.458;9.940;2023-07-20T01:05:21;2.72;;;2.72;;
9270;SDS011;4673;53.458;9.940;2023-07-20T01:07:59;3.38;;;3.38;;
9270;SDS011;4673;53.458;9.940;2023-07-20T01:10:33;3.25;;;3.25;;
9270;SDS011;4673;53.458;9.940;2023-07-20T01:13:04;4.18;;;4.18;;
9270;SDS011;4673;53.458;9.940;2023-07-20T01:15:35;3.70;;;3.70;;
9270;SDS011;4673;53.458;9.940;2023-07-20T01:18:00;3.90;;;3.90;;
9270;SDS011;4673;53.458;9.940;2023-07-20T01:20:26;4.55;;;4.55;;
9270;SDS011;4673;53.458;9.940;2023-07-20T01:26:02;3.58;;;3.58;;
9270;SDS011;4673;53.458;9.940;2023-07-20T01:31:32;4.40;;;4.40;;
9270;SDS011;4673;53.458;9.940;2023-07-20T01:34:00;3.80;;;3.80;;
9270;SDS011;4673;53.458;9.940;2023-07-20T01:36:29;4.03;;;4.03;;
9270;SDS011;4673;53.458;9.940;2023-07-20T01:38:58;3.67;;;3.67;;
9270;SDS011;4673;53.458;9.940;2023-07-20T01:41:24;4.82;;;4.82;;
9270;SDS011;4673;53.458;9.940;2023-07-20T01:43:50;4.30;;;4.30;;
9270;SDS011;4673;53.458;9.940;2023-07-20T01:46:15;4.28;;;4.28;;
9270;SDS011;4673;53.458;9.940;2023-07-20T01:48:41;4.20;;;4.20;;
9270;SDS011;4673;53.458;9.940;2023-07-20T01:51:07;4.17;;;4.17;;
9270;SDS011;4673;53.458;9.940;2023-07-20T01:53:33;4.47;;;4.47;;
9270;SDS011;4673;53.458;9.940;2023-07-20T01:55:59;4.22;;;4.22;;
9270;SDS011;4673;53.458;9.940;2023-07-20T01:58:24;3.63;;;3.63;;
9270;SDS011;4673;53.458;9.940;2023-07-20T02:00:50;3.40;;;3.40;;
9270;SDS011;4673;53.458;9.940;2023-07-20T02:03:16;4.00;;;4.00;;
9270;SDS011;4673;53.458;9.940;2023-07-20T02:05:44;3.78;;;3.78;;
9270;SDS011;4673;53.458;9.940;2023-07-20T02:08:10;3.92;;;3.92;;
9270;SDS011;4673;53.458;9.940;2023-07-20T02:10:36;4.05;;;4.05;;
9270;SDS011;4673;53.458;9.940;2023-07-20T02:13:02;3.90;;;3.90;;
9270;SDS011;4673;53.458;9.940;2023-07-20T02:15:27;4.20;;;4.20;;
9270;SDS011;4673;53.458;9.940;2023-07-20T02:17:53;4.35;;;4.35;;
9270;SDS011;4673;53.458;9.940;2023-07-20T02:20:19;4.50;;;4.50;;
9270;SDS011;4673;53.458;9.940;2023-07-20T02:22:45;5.05;;;5.05;;
9270;SDS011;4673;53.458;9.940;2023-07-20T02:25:11;4.82;;;4.82;;
9270;SDS011;4673;53.458;9.940;2023-07-20T02:27:37;5.28;;;5.28;;
9270;SDS011;4673;53.458;9.940;2023-07-20T02:30:04;4.63;;;4.63;;
9270;SDS011;4673;53.458;9.940;2023-07-20T02:32:30;4.23;;;4.23;;
9270;SDS011;4673;53.458;9.940;2023-07-20T02:34:56;4.50;;;4.50;;
9270;SDS011;4673;53.458;9.940;2023-07-20T02:37:23;4.10;;;4.10;;
9270;SDS011;4673;53.458;9.940;2023-07-20T02:39:49;3.53;;;3.53;;
9270;SDS011;4673;53.458;9.940;2023-07-20T02:42:15;3.10;;;3.10;;
9270;SDS011;4673;53.458;9.940;2023-07-20T02:44:40;3.10;;;3.10;;
9270;SDS011;4673;53.458;9.940;2023-07-20T02:47:06;3.10;;;3.10;;
9270;SDS011;4673;53.458;9.940;2023-07-20T02:49:32;3.55;;;3.55;;
9270;SDS011;4673;53.458;9.940;2023-07-20T02:51:57;3.13;;;3.13;;
9270;SDS011;4673;53.458;9.940;2023-07-20T02:54:23;3.50;;;3.50;;
9270;SDS011;4673;53.458;9.940;2023-07-20T02:56:49;3.10;;;3.10;;
9270;SDS011;4673;53.458;9.940;2023-07-20T02:59:14;3.08;;;3.08;;
9270;SDS011;4673;53.458;9.940;2023-07-20T03:01:40;3.45;;;3.45;;
9270;SDS011;4673;53.458;9.940;2023-07-20T03:04:07;2.95;;;2.95;;
9270;SDS011;4673;53.458;9.940;2023-07-20T03:06:35;3.28;;;3.28;;
9270;SDS011;4673;53.458;9.940;2023-07-20T03:09:01;3.13;;;3.13;;
9270;SDS011;4673;53.458;9.940;2023-07-20T03:11:28;3.60;;;3.60;;
9270;SDS011;4673;53.458;9.940;2023-07-20T03:13:54;2.78;;;2.78;;
9270;SDS011;4673;53.458;9.940;2023-07-20T03:16:20;2.97;;;2.97;;
9270;SDS011;4673;53.458;9.940;2023-07-20T03:18:45;2.63;;;2.63;;
9270;SDS011;4673;53.458;9.940;2023-07-20T03:21:11;2.50;;;2.50;;
9270;SDS011;4673;53.458;9.940;2023-07-20T03:23:37;2.83;;;2.83;;
9270;SDS011;4673;53.458;9.940;2023-07-20T03:26:04;2.30;;;2.30;;
9270;SDS011;4673;53.458;9.940;2023-07-20T03:28:29;2.65;;;2.65;;
9270;SDS011;4673;53.458;9.940;2023-07-20T03:30:55;2.93;;;2.93;;
9270;SDS011;4673;53.458;9.940;2023-07-20T03:33:24;2.50;;;2.50;;
9270;SDS011;4673;53.458;9.940;2023-07-20T03:35:51;2.92;;;2.92;;
9270;SDS011;4673;53.458;9.940;2023-07-20T03:38:17;2.88;;;2.88;;
9270;SDS011;4673;53.458;9.940;2023-07-20T03:40:55;3.63;;;3.63;;
9270;SDS011;4673;53.458;9.940;2023-07-20T03:43:22;3.10;;;3.10;;
9270;SDS011;4673;53.458;9.940;2023-07-20T03:45:49;3.33;;;3.33;;
9270;SDS011;4673;53.458;9.940;2023-07-20T03:48:16;3.03;;;3.03;;
9270;SDS011;4673;53.458;9.940;2023-07-20T03:50:46;3.20;;;3.20;;
9270;SDS011;4673;53.458;9.940;2023-07-20T03:53:13;3.42;;;3.42;;
9270;SDS011;4673;53.458;9.940;2023-07-20T03:55:48;2.88;;;2.88;;
9270;SDS011;4673;53.458;9.940;2023-07-20T03:58:16;3.47;;;3.47;;
9270;SDS011;4673;53.458;9.940;2023-07-20T04:00:45;2.97;;;2.97;;
9270;SDS011;4673;53.458;9.940;2023-07-20T04:03:12;3.10;;;3.10;;
9270;SDS011;4673;53.458;9.940;2023-07-20T04:05:38;3.28;;;3.28;;
9270;SDS011;4673;53.458;9.940;2023-07-20T04:08:04;2.78;;;2.78;;
9270;SDS011;4673;53.458;9.940;2023-07-20T04:10:29;3.17;;;3.17;;
9270;SDS011;4673;53.458;9.940;2023-07-20T04:12:55;2.58;;;2.58;;
9270;SDS011;4673;53.458;9.940;2023-07-20T04:15:21;2.90;;;2.90;;
9270;SDS011;4673;53.458;9.940;2023-07-20T04:17:46;2.08;;;2.08;;
9270;SDS011;4673;53.458;9.940;2023-07-20T04:20:12;1.73;;;1.73;;
9270;SDS011;4673;53.458;9.940;2023-07-20T04:22:38;2.35;;;2.35;;
9270;SDS011;4673;53.458;9.940;2023-07-20T04:25:03;1.70;;;1.70;;
9270;SDS011;4673;53.458;9.940;2023-07-20T04:27:29;1.73;;;1.73;;
9270;SDS011;4673;53.458;9.940;2023-07-20T04:29:55;1.88;;;1.88;;
9270;SDS011;4673;53.458;9.940;2023-07-20T04:32:22;1.83;;;1.83;;
9270;SDS011;4673;53.458;9.940;2023-07-20T04:34:48;1.80;;;1.80;;
9270;SDS011;4673;53.458;9.940;2023-07-20T04:37:14;1.77;;;1.77;;
9270;SDS011;4673;53.458;9.940;2023-07-20T04:39:40;1.45;;;1.45;;
9270;SDS011;4673;53.458;9.940;2023-07-20T04:42:05;2.10;;;2.10;;
9270;SDS011;4673;53.458;9.940;2023-07-20T04:44:31;1.70;;;1.70;;
9270;SDS011;4673;53.458;9.940;2023-07-20T04:46:57;1.70;;;1.70;;
9270;SDS011;4673;53.458;9.940;2023-07-20T04:49:22;2.15;;;2.15;;
9270;SDS011;4673;53.458;9.940;2023-07-20T04:51:48;2.15;;;2.15;;
9270;SDS011;4673;53.458;9.940;2023-07-20T04:54:14;2.80;;;2.80;;
9270;SDS011;4673;53.458;9.940;2023-07-20T04:56:41;2.70;;;2.70;;
9270;SDS011;4673;53.458;9.940;2023-07-20T04:59:07;2.50;;;2.50;;
9270;SDS011;4673;53.458;9.940;2023-07-20T05:01:32;2.65;;;2.65;;
9270;SDS011;4673;53.458;9.940;2023-07-20T05:03:58;2.83;;;2.83;;
9270;SDS011;4673;53.458;9.940;2023-07-20T05:06:23;2.70;;;2.70;;
9270;SDS011;4673;53.458;9.940;2023-07-20T05:08:49;2.42;;;2.42;;
9270;SDS011;4673;53.458;9.940;2023-07-20T05:11:15;2.85;;;2.85;;
9270;SDS011;4673;53.458;9.940;2023-07-20T05:13:40;3.13;;;3.13;;
9270;SDS011;4673;53.458;9.940;2023-07-20T05:16:06;3.45;;;3.45;;
9270;SDS011;4673;53.458;9.940;2023-07-20T05:18:32;3.53;;;3.53;;
9270;SDS011;4673;53.458;9.940;2023-07-20T05:20:58;3.70;;;3.70;;
9270;SDS011;4673;53.458;9.940;2023-07-20T05:23:23;3.42;;;3.42;;
9270;SDS011;4673;53.458;9.940;2023-07-20T05:25:56;4.10;;;4.10;;
9270;SDS011;4673;53.458;9.940;2023-07-20T05:28:23;4.22;;;4.22;;
9270;SDS011;4673;53.458;9.940;2023-07-20T05:30:49;4.60;;;4.60;;
9270;SDS011;4673;53.458;9.940;2023-07-20T05:33:16;4.28;;;4.28;;
9270;SDS011;4673;53.458;9.940;2023-07-20T05:35:43;3.85;;;3.85;;
9270;SDS011;4673;53.458;9.940;2023-07-20T05:38:08;3.78;;;3.78;;
9270;SDS011;4673;53.458;9.940;2023-07-20T05:40:37;4.75;;;4.75;;
9270;SDS011;4673;53.458;9.940;2023-07-20T05:43:05;4.75;;;4.75;;
9270;SDS011;4673;53.458;9.940;2023-07-20T05:45:30;4.20;;;4.20;;
9270;SDS011;4673;53.458;9.940;2023-07-20T05:47:56;4.30;;;4.30;;
9270;SDS011;4673;53.458;9.940;2023-07-20T05:50:21;4.03;;;4.03;;
9270;SDS011;4673;53.458;9.940;2023-07-20T05:52:47;4.05;;;4.05;;
9270;SDS011;4673;53.458;9.940;2023-07-20T05:55:13;3.08;;;3.08;;
9270;SDS011;4673;53.458;9.940;2023-07-20T05:57:39;3.90;;;3.90;;
9270;SDS011;4673;53.458;9.940;2023-07-20T06:00:07;2.45;;;2.45;;
9270;SDS011;4673;53.458;9.940;2023-07-20T06:02:33;3.80;;;3.80;;
9270;SDS011;4673;53.458;9.940;2023-07-20T06:04:59;3.20;;;3.20;;
9270;SDS011;4673;53.458;9.940;2023-07-20T06:07:25;3.08;;;3.08;;
9270;SDS011;4673;53.458;9.940;2023-07-20T06:09:51;3.05;;;3.05;;
9270;SDS011;4673;53.458;9.940;2023-07-20T06:12:17;2.50;;;2.50;;
9270;SDS011;4673;53.458;9.940;2023-07-20T06:14:42;3.08;;;3.08;;
9270;SDS011;4673;53.458;9.940;2023-07-20T06:17:08;2.33;;;2.33;;
9270;SDS011;4673;53.458;9.940;2023-07-20T06:19:33;2.28;;;2.28;;
9270;SDS011;4673;53.458;9.940;2023-07-20T06:21:59;3.13;;;3.13;;
9270;SDS011;4673;53.458;9.940;2023-07-20T06:24:25;2.65;;;2.65;;
9270;SDS011;4673;53.458;9.940;2023-07-20T06:26:51;2.33;;;2.33;;
9270;SDS011;4673;53.458;9.940;2023-07-20T06:29:16;2.50;;;2.50;;
9270;SDS011;4673;53.458;9.940;2023-07-20T06:31:42;2.13;;;2.13;;
9270;SDS011;4673;53.458;9.940;2023-07-20T06:34:08;1.98;;;1.98;;
9270;SDS011;4673;53.458;9.940;2023-07-20T06:36:34;2.20;;;2.20;;
9270;SDS011;4673;53.458;9.940;2023-07-20T06:39:00;1.95;;;1.95;;
9270;SDS011;4673;53.458;9.940;2023-07-20T06:41:27;1.92;;;1.92;;
9270;SDS011;4673;53.458;9.940;2023-07-20T06:43:53;1.40;;;1.40;;
9270;SDS011;4673;53.458;9.940;2023-07-20T06:46:23;1.50;;;1.50;;
9270;SDS011;4673;53.458;9.940;2023-07-20T06:48:50;1.52;;;1.52;;
9270;SDS011;4673;53.458;9.940;2023-07-20T06:51:15;1.38;;;1.38;;
9270;SDS011;4673;53.458;9.940;2023-07-20T06:53:41;1.23;;;1.23;;
9270;SDS011;4673;53.458;9.940;2023-07-20T06:56:07;1.40;;;1.40;;
9270;SDS011;4673;53.458;9.940;2023-07-20T06:58:32;1.10;;;1.10;;
9270;SDS011;4673;53.458;9.940;2023-07-20T07:00:58;1.10;;;1.10;;
9270;SDS011;4673;53.458;9.940;2023-07-20T07:03:24;1.08;;;1.08;;
9270;SDS011;4673;53.458;9.940;2023-07-20T07:05:50;1.30;;;1.30;;
9270;SDS011;4673;53.458;9.940;2023-07-20T07:08:19;1.00;;;1.00;;
9270;SDS011;4673;53.458;9.940;2023-07-20T07:10:45;1.10;;;1.10;;
9270;SDS011;4673;53.458;9.940;2023-07-20T07:13:11;1.00;;;1.00;;
9270;SDS011;4673;53.458;9.940;2023-07-20T07:15:36;1.20;;;1.20;;
9270;SDS011;4673;53.458;9.940;2023-07-20T07:18:02;1.23;;;1.23;;
9270;SDS011;4673;53.458;9.940;2023-07-20T07:20:28;1.33;;;1.33;;
9270;SDS011;4673;53.458;9.940;2023-07-20T07:22:54;2.00;;;2.00;;
9270;SDS011;4673;53.458;9.940;2023-07-20T07:25:22;1.50;;;1.50;;
9270;SDS011;4673;53.458;9.940;2023-07-20T07:27:47;1.92;;;1.92;;
9270;SDS011;4673;53.458;9.940;2023-07-20T07:30:13;1.15;;;1.15;;
9270;SDS011;4673;53.458;9.940;2023-07-20T07:32:39;1.13;;;1.13;;
9270;SDS011;4673;53.458;9.940;2023-07-20T07:35:05;1.30;;;1.30;;
9270;SDS011;4673;53.458;9.940;2023-07-20T07:37:30;1.27;;;1.27;;
9270;SDS011;4673;53.458;9.940;2023-07-20T07:39:57;1.25;;;1.25;;
9270;SDS011;4673;53.458;9.940;2023-07-20T07:42:22;1.00;;;1.00;;
9270;SDS011;4673;53.458;9.940;2023-07-20T07:44:48;1.40;;;1.40;;
9270;SDS011;4673;53.458;9.940;2023-07-20T07:47:14;1.42;;;1.42;;
9270;SDS011;4673;53.458;9.940;2023-07-20T07:49:39;1.05;;;1.05;;
9270;SDS011;4673;53.458;9.940;2023-07-20T07:52:05;1.30;;;1.30;;
9270;SDS011;4673;53.458;9.940;2023-07-20T07:54:31;1.05;;;1.05;;
9270;SDS011;4673;53.458;9.940;2023-07-20T07:56:56;1.13;;;1.13;;
9270;SDS011;4673;53.458;9.940;2023-07-20T07:59:22;1.20;;;1.20;;
9270;SDS011;4673;53.458;9.940;2023-07-20T08:01:51;2.05;;;2.05;;
9270;SDS011;4673;53.458;9.940;2023-07-20T08:04:17;1.75;;;1.75;;
9270;SDS011;4673;53.458;9.940;2023-07-20T08:06:43;1.42;;;1.42;;
9270;SDS011;4673;53.458;9.940;2023-07-20T08:09:09;1.35;;;1.35;;
9270;SDS011;4673;53.458;9.940;2023-07-20T08:11:35;1.50;;;1.50;;
9270;SDS011;4673;53.458;9.940;2023-07-20T08:14:00;1.40;;;1.40;;
9270;SDS011;4673;53.458;9.940;2023-07-20T08:16:26;1.23;;;1.23;;
9270;SDS011;4673;53.458;9.940;2023-07-20T08:18:52;1.63;;;1.63;;
9270;SDS011;4673;53.458;9.940;2023-07-20T08:21:18;1.48;;;1.48;;
9270;SDS011;4673;53.458;9.940;2023-07-20T08:23:43;1.15;;;1.15;;
9270;SDS011;4673;53.458;9.940;2023-07-20T08:26:09;1.30;;;1.30;;
9270;SDS011;4673;53.458;9.940;2023-07-20T08:28:35;1.40;;;1.40;;
9270;SDS011;4673;53.458;9.940;2023-07-20T08:31:00;2.08;;;2.08;;
9270;SDS011;4673;53.458;9.940;2023-07-20T08:33:27;1.27;;;1.27;;
9270;SDS011;4673;53.458;9.940;2023-07-20T08:35:54;1.70;;;1.70;;
9270;SDS011;4673;53.458;9.940;2023-07-20T08:38:21;1.45;;;1.45;;
9270;SDS011;4673;53.458;9.940;2023-07-20T08:40:47;1.60;;;1.60;;
9270;SDS011;4673;53.458;9.940;2023-07-20T08:43:13;1.75;;;1.75;;
9270;SDS011;4673;53.458;9.940;2023-07-20T08:45:44;1.85;;;1.85;;
9270;SDS011;4673;53.458;9.940;2023-07-20T08:48:10;2.53;;;2.53;;
9270;SDS011;4673;53.458;9.940;2023-07-20T08:50:37;1.77;;;1.77;;
9270;SDS011;4673;53.458;9.940;2023-07-20T08:53:03;1.63;;;1.63;;
9270;SDS011;4673;53.458;9.940;2023-07-20T08:55:29;1.83;;;1.83;;
9270;SDS011;4673;53.458;9.940;2023-07-20T08:57:57;2.05;;;2.05;;
9270;SDS011;4673;53.458;9.940;2023-07-20T09:00:25;2.42;;;2.42;;
9270;SDS011;4673;53.458;9.940;2023-07-20T09:02:55;2.30;;;2.30;;
9270;SDS011;4673;53.458;9.940;2023-07-20T09:05:22;1.55;;;1.55;;
9270;SDS011;4673;53.458;9.940;2023-07-20T09:07:49;1.80;;;1.80;;
9270;SDS011;4673;53.458;9.940;2023-07-20T09:10:16;1.70;;;1.70;;
9270;SDS011;4673;53.458;9.940;2023-07-20T09:12:43;1.88;;;1.88;;
9270;SDS011;4673;53.458;9.940;2023-07-20T09:15:10;1.95;;;1.95;;
9270;SDS011;4673;53.458;9.940;2023-07-20T09:17:37;2.08;;;2.08;;
9270;SDS011;4673;53.458;9.940;2023-07-20T09:20:06;2.10;;;2.10;;
9270;SDS011;4673;53.458;9.940;2023-07-20T09:22:36;1.90;;;1.90;;
9270;SDS011;4673;53.458;9.940;2023-07-20T09:25:06;1.50;;;1.50;;
9270;SDS011;4673;53.458;9.940;2023-07-20T09:27:38;1.40;;;1.40;;
9270;SDS011;4673;53.458;9.940;2023-07-20T09:30:05;2.13;;;2.13;;
9270;SDS011;4673;53.458;9.940;2023-07-20T09:32:39;1.67;;;1.67;;
9270;SDS011;4673;53.458;9.940;2023-07-20T09:35:06;1.90;;;1.90;;
9270;SDS011;4673;53.458;9.940;2023-07-20T09:37:37;1.52;;;1.52;;
9270;SDS011;4673;53.458;9.940;2023-07-20T09:40:03;1.65;;;1.65;;
9270;SDS011;4673;53.458;9.940;2023-07-20T09:42:33;3.47;;;3.38;;
9270;SDS011;4673;53.458;9.940;2023-07-20T09:45:01;1.77;;;1.77;;
9270;SDS011;4673;53.458;9.940;2023-07-20T09:47:27;1.27;;;1.27;;
9270;SDS011;4673;53.458;9.940;2023-07-20T09:50:00;1.45;;;1.45;;
9270;SDS011;4673;53.458;9.940;2023-07-20T09:52:26;1.60;;;1.60;;
9270;SDS011;4673;53.458;9.940;2023-07-20T09:54:52;1.80;;;1.80;;
9270;SDS011;4673;53.458;9.940;2023-07-20T09:57:19;1.92;;;1.92;;
9270;SDS011;4673;53.458;9.940;2023-07-20T09:59:46;1.90;;;1.90;;
9270;SDS011;4673;53.458;9.940;2023-07-20T10:02:20;1.85;;;1.85;;
9270;SDS011;4673;53.458;9.940;2023-07-20T10:04:51;1.73;;;1.73;;
9270;SDS011;4673;53.458;9.940;2023-07-20T10:07:18;1.98;;;1.98;;
9270;SDS011;4673;53.458;9.940;2023-07-20T10:09:47;1.50;;;1.50;;
9270;SDS011;4673;53.458;9.940;2023-07-20T10:12:16;1.35;;;1.35;;
9270;SDS011;4673;53.458;9.940;2023-07-20T10:17:20;1.58;;;1.58;;
9270;SDS011;4673;53.458;9.940;2023-07-20T10:19:47;1.25;;;1.25;;
9270;SDS011;4673;53.458;9.940;2023-07-20T10:22:26;1.73;;;1.73;;
9270;SDS011;4673;53.458;9.940;2023-07-20T10:24:54;1.42;;;1.42;;
9270;SDS011;4673;53.458;9.940;2023-07-20T10:27:23;1.40;;;1.40;;
9270;SDS011;4673;53.458;9.940;2023-07-20T10:29:49;1.08;;;1.08;;
9270;SDS011;4673;53.458;9.940;2023-07-20T10:32:16;1.10;;;1.10;;
9270;SDS011;4673;53.458;9.940;2023-07-20T10:34:49;1.30;;;1.30;;
9270;SDS011;4673;53.458;9.940;2023-07-20T10:43:19;1.20;;;1.20;;
9270;SDS011;4673;53.458;9.940;2023-07-20T10:45:51;0.90;;;0.90;;
9270;SDS011;4673;53.458;9.940;2023-07-20T10:48:19;0.75;;;0.75;;
9270;SDS011;4673;53.458;9.940;2023-07-20T10:51:38;0.82;;;0.82;;
9270;SDS011;4673;53.458;9.940;2023-07-20T10:53:45;0.90;;;0.90;;
9270;SDS011;4673;53.458;9.940;2023-07-20T10:56:14;0.77;;;0.77;;
9270;SDS011;4673;53.458;9.940;2023-07-20T10:58:44;0.77;;;0.77;;
9270;SDS011;4673;53.458;9.940;2023-07-20T11:01:13;1.13;;;1.13;;
9270;SDS011;4673;53.458;9.940;2023-07-20T11:03:39;0.95;;;0.95;;
9270;SDS011;4673;53.458;9.940;2023-07-20T11:11:28;0.80;;;0.80;;
9270;SDS011;4673;53.458;9.940;2023-07-20T11:13:59;0.75;;;0.75;;
9270;SDS011;4673;53.458;9.940;2023-07-20T11:16:35;0.93;;;0.93;;
9270;SDS011;4673;53.458;9.940;2023-07-20T11:19:17;0.70;;;0.70;;
9270;SDS011;4673;53.458;9.940;2023-07-20T11:21:43;0.50;;;0.50;;
9270;SDS011;4673;53.458;9.940;2023-07-20T11:24:10;0.80;;;0.80;;
9270;SDS011;4673;53.458;9.940;2023-07-20T11:26:51;0.50;;;0.50;;
9270;SDS011;4673;53.458;9.940;2023-07-20T11:29:19;0.60;;;0.60;;
9270;SDS011;4673;53.458;9.940;2023-07-20T11:31:48;0.50;;;0.50;;
9270;SDS011;4673;53.458;9.940;2023-07-20T11:36:41;0.90;;;0.90;;
9270;SDS011;4673;53.458;9.940;2023-07-20T11:39:08;0.90;;;0.90;;
9270;SDS011;4673;53.458;9.940;2023-07-20T11:41:48;0.47;;;0.47;;
9270;SDS011;4673;53.458;9.940;2023-07-20T11:44:18;0.93;;;0.93;;
9270;SDS011;4673;53.458;9.940;2023-07-20T11:46:46;0.80;;;0.80;;
9270;SDS011;4673;53.458;9.940;2023-07-20T11:49:12;0.80;;;0.80;;
9270;SDS011;4673;53.458;9.940;2023-07-20T11:51:38;1.00;;;1.00;;
9270;SDS011;4673;53.458;9.940;2023-07-20T11:54:05;1.33;;;1.33;;
9270;SDS011;4673;53.458;9.940;2023-07-20T11:56:33;0.68;;;0.68;;
9270;SDS011;4673;53.458;9.940;2023-07-20T11:58:58;1.20;;;1.20;;
9270;SDS011;4673;53.458;9.940;2023-07-20T12:01:26;1.27;;;1.27;;
9270;SDS011;4673;53.458;9.940;2023-07-20T12:04:00;0.70;;;0.70;;
9270;SDS011;4673;53.458;9.940;2023-07-20T12:06:28;1.05;;;1.05;;
9270;SDS011;4673;53.458;9.940;2023-07-20T12:08:55;0.75;;;0.75;;
9270;SDS011;4673;53.458;9.940;2023-07-20T12:11:37;0.77;;;0.77;;
9270;SDS011;4673;53.458;9.940;2023-07-20T12:14:04;1.45;;;1.45;;
9270;SDS011;4673;53.458;9.940;2023-07-20T12:16:32;1.00;;;1.00;;
9270;SDS011;4673;53.458;9.940;2023-07-20T12:19:08;0.90;;;0.90;;
9270;SDS011;4673;53.458;9.940;2023-07-20T12:21:35;1.00;;;1.00;;
9270;SDS011;4673;53.458;9.940;2023-07-20T12:24:03;1.27;;;1.27;;
9270;SDS011;4673;53.458;9.940;2023-07-20T12:26:30;0.90;;;0.90;;
9270;SDS011;4673;53.458;9.940;2023-07-20T12:28:56;0.68;;;0.68;;
9270;SDS011;4673;53.458;9.940;2023-07-20T12:31:23;0.90;;;0.90;;
9270;SDS011;4673;53.458;9.940;2023-07-20T12:33:49;0.77;;;0.77;;
9270;SDS011;4673;53.458;9.940;2023-07-20T12:36:17;0.68;;;0.68;;
9270;SDS011;4673;53.458;9.940;2023-07-20T12:38:43;0.68;;;0.68;;
9270;SDS011;4673;53.458;9.940;2023-07-20T12:41:10;1.00;;;1.00;;
9270;SDS011;4673;53.458;9.940;2023-07-20T12:43:40;0.50;;;0.50;;
9270;SDS011;4673;53.458;9.940;2023-07-20T12:46:09;0.70;;;0.70;;
9270;SDS011;4673;53.458;9.940;2023-07-20T12:48:37;0.80;;;0.80;;
9270;SDS011;4673;53.458;9.940;2023-07-20T12:51:05;0.60;;;0.60;;
9270;SDS011;4673;53.458;9.940;2023-07-20T12:53:31;1.13;;;1.13;;
9270;SDS011;4673;53.458;9.940;2023-07-20T12:55:57;0.90;;;0.90;;
9270;SDS011;4673;53.458;9.940;2023-07-20T12:58:23;1.35;;;1.35;;
9270;SDS011;4673;53.458;9.940;2023-07-20T13:00:49;0.95;;;0.95;;
9270;SDS011;4673;53.458;9.940;2023-07-20T13:03:15;0.80;;;0.80;;
9270;SDS011;4673;53.458;9.940;2023-07-20T13:05:43;1.20;;;1.20;;
9270;SDS011;4673;53.458;9.940;2023-07-20T13:08:09;1.08;;;1.08;;
9270;SDS011;4673;53.458;9.940;2023-07-20T13:10:35;1.48;;;1.48;;
9270;SDS011;4673;53.458;9.940;2023-07-20T13:13:01;1.00;;;1.00;;
9270;SDS011;4673;53.458;9.940;2023-07-20T13:15:31;1.38;;;1.38;;
9270;SDS011;4673;53.458;9.940;2023-07-20T13:17:57;0.82;;;0.82;;
9270;SDS011;4673;53.458;9.940;2023-07-20T13:20:24;0.60;;;0.60;;
9270;SDS011;4673;53.458;9.940;2023-07-20T13:22:50;0.75;;;0.75;;
9270;SDS011;4673;53.458;9.940;2023-07-20T13:25:16;0.57;;;0.57;;
9270;SDS011;4673;53.458;9.940;2023-07-20T13:27:42;0.80;;;0.80;;
9270;SDS011;4673;53.458;9.940;2023-07-20T13:30:08;0.60;;;0.60;;
9270;SDS011;4673;53.458;9.940;2023-07-20T13:32:36;1.00;;;1.00;;
9270;SDS011;4673;53.458;9.940;2023-07-20T13:35:02;1.20;;;1.20;;
9270;SDS011;4673;53.458;9.940;2023-07-20T13:37:28;0.70;;;0.70;;
9270;SDS011;4673;53.458;9.940;2023-07-20T13:39:54;0.65;;;0.65;;
9270;SDS011;4673;53.458;9.940;2023-07-20T13:42:20;0.95;;;0.95;;
9270;SDS011;4673;53.458;9.940;2023-07-20T13:44:47;0.93;;;0.93;;
9270;SDS011;4673;53.458;9.940;2023-07-20T13:47:13;0.70;;;0.70;;
9270;SDS011;4673;53.458;9.940;2023-07-20T13:49:39;1.13;;;1.13;;
9270;SDS011;4673;53.458;9.940;2023-07-20T13:52:05;0.98;;;0.98;;
9270;SDS011;4673;53.458;9.940;2023-07-20T13:54:30;0.93;;;0.93;;
9270;SDS011;4673;53.458;9.940;2023-07-20T13:56:56;0.80;;;0.80;;
9270;SDS011;4673;53.458;9.940;2023-07-20T13:59:22;2.20;;;2.20;;
9270;SDS011;4673;53.458;9.940;2023-07-20T14:01:48;0.77;;;0.77;;
9270;SDS011;4673;53.458;9.940;2023-07-20T14:04:14;1.00;;;1.00;;
9270;SDS011;4673;53.458;9.940;2023-07-20T14:06:40;1.30;;;1.30;;
9270;SDS011;4673;53.458;9.940;2023-07-20T14:09:05;1.27;;;1.27;;
9270;SDS011;4673;53.458;9.940;2023-07-20T14:11:32;0.95;;;0.95;;
9270;SDS011;4673;53.458;9.940;2023-07-20T14:13:58;1.05;;;1.05;;
9270;SDS011;4673;53.458;9.940;2023-07-20T14:16:23;1.23;;;1.23;;
9270;SDS011;4673;53.458;9.940;2023-07-20T14:18:50;1.13;;;1.13;;
9270;SDS011;4673;53.458;9.940;2023-07-20T14:21:16;1.15;;;1.15;;
9270;SDS011;4673;53.458;9.940;2023-07-20T14:23:46;1.08;;;1.08;;
9270;SDS011;4673;53.458;9.940;2023-07-20T14:26:13;0.77;;;0.77;;
9270;SDS011;4673;53.458;9.940;2023-07-20T14:28:39;1.10;;;1.10;;
9270;SDS011;4673;53.458;9.940;2023-07-20T14:31:05;0.95;;;0.95;;
9270;SDS011;4673;53.458;9.940;2023-07-20T14:33:31;1.00;;;1.00;;
9270;SDS011;4673;53.458;9.940;2023-07-20T14:35:57;0.98;;;0.98;;
9270;SDS011;4673;53.458;9.940;2023-07-20T14:38:23;0.90;;;0.90;;
9270;SDS011;4673;53.458;9.940;2023-07-20T14:40:48;0.93;;;0.93;;
9270;SDS011;4673;53.458;9.940;2023-07-20T14:43:14;0.70;;;0.70;;
9270;SDS011;4673;53.458;9.940;2023-07-20T14:45:40;0.98;;;0.98;;
9270;SDS011;4673;53.458;9.940;2023-07-20T14:48:06;0.85;;;0.85;;
9270;SDS011;4673;53.458;9.940;2023-07-20T14:50:32;1.05;;;1.05;;
9270;SDS011;4673;53.458;9.940;2023-07-20T14:52:58;0.98;;;0.98;;
9270;SDS011;4673;53.458;9.940;2023-07-20T14:55:23;1.05;;;1.05;;
9270;SDS011;4673;53.458;9.940;2023-07-20T14:57:50;0.98;;;0.98;;
9270;SDS011;4673;53.458;9.940;2023-07-20T15:00:16;1.58;;;1.58;;
9270;SDS011;4673;53.458;9.940;2023-07-20T15:02:42;1.10;;;1.10;;
9270;SDS011;4673;53.458;9.940;2023-07-20T15:05:09;1.45;;;1.45;;
9270;SDS011;4673;53.458;9.940;2023-07-20T15:07:35;1.23;;;1.23;;
9270;SDS011;4673;53.458;9.940;2023-07-20T15:10:01;1.20;;;1.20;;
9270;SDS011;4673;53.458;9.940;2023-07-20T15:12:28;1.25;;;1.25;;
9270;SDS011;4673;53.458;9.940;2023-07-20T15:15:02;1.27;;;1.27;;
9270;SDS011;4673;53.458;9.940;2023-07-20T15:17:32;1.10;;;1.10;;
9270;SDS011;4673;53.458;9.940;2023-07-20T15:20:00;1.00;;;1.00;;
9270;SDS011;4673;53.458;9.940;2023-07-20T15:22:29;0.90;;;0.90;;
9270;SDS011;4673;53.458;9.940;2023-07-20T15:24:55;1.77;;;1.77;;
9270;SDS011;4673;53.458;9.940;2023-07-20T15:27:21;1.10;;;1.10;;
9270;SDS011;4673;53.458;9.940;2023-07-20T15:29:48;1.02;;;1.02;;
9270;SDS011;4673;53.458;9.940;2023-07-20T15:32:13;1.00;;;1.00;;
9270;SDS011;4673;53.458;9.940;2023-07-20T15:34:41;1.25;;;1.25;;
9270;SDS011;4673;53.458;9.940;2023-07-20T15:37:07;1.35;;;1.35;;